sensor_id;sensor_type;location;lat;lon;timestamp;pressure;altitude;pressure_sealevel;temperature;humidity
9474;BME280;8865;47.636;7.692;2022-09-12T00:02:02;98373.13;;;13.93;100.00
9474;BME280;8865;47.636;7.692;2022-09-12T00:04:29;98373.56;;;13.89;100.00
9474;BME280;8865;47.636;7.692;2022-09-12T00:06:55;98377.47;;;13.85;100.00
9474;BME280;8865;47.636;7.692;2022-09-12T00:09:24;98374.16;;;13.83;100.00
9474;BME280;8865;47.636;7.692;2022-09-12T00:11:50;98372.50;;;13.82;100.00
9474;BME280;8865;47.636;7.692;2022-09-12T00:14:17;98373.94;;;13.76;100.00
9474;BME280;8865;47.636;7.692;2022-09-12T00:16:46;98372.94;;;13.77;100.00
9474;BME280;8865;47.636;7.692;2022-09-12T00:19:12;98369.66;;;13.75;100.00
9474;BME280;8865;47.636;7.692;2022-09-12T00:21:44;98368.44;;;13.69;100.00
9474;BME280;8865;47.636;7.692;2022-09-12T00:24:17;98369.84;;;13.64;100.00
9474;BME280;8865;47.636;7.692;2022-09-12T00:26:43;98365.03;;;13.59;100.00
9474;BME280;8865;47.636;7.692;2022-09-12T00:29:17;98368.97;;;13.55;100.00
9474;BME280;8865;47.636;7.692;2022-09-12T00:31:47;98361.34;;;13.52;100.00
9474;BME280;8865;47.636;7.692;2022-09-12T00:34:13;98361.66;;;13.49;100.00
9474;BME280;8865;47.636;7.692;2022-09-12T00:36:42;98365.09;;;13.49;100.00
9474;BME280;8865;47.636;7.692;2022-09-12T00:39:09;98362.78;;;13.46;100.00
9474;BME280;8865;47.636;7.692;2022-09-12T00:41:41;98356.13;;;13.42;100.00
9474;BME280;8865;47.636;7.692;2022-09-12T00:49:14;98361.03;;;13.37;100.00
9474;BME280;8865;47.636;7.692;2022-09-12T00:52:10;98358.00;;;13.32;100.00
9474;BME280;8865;47.636;7.692;2022-09-12T00:54:43;98356.47;;;13.29;100.00
9474;BME280;8865;47.636;7.692;2022-09-12T00:57:12;98356.31;;;13.31;100.00
9474;BME280;8865;47.636;7.692;2022-09-12T00:59:43;98360.22;;;13.27;100.00
9474;BME280;8865;47.636;7.692;2022-09-12T01:02:13;98357.72;;;13.25;100.00
9474;BME280;8865;47.636;7.692;2022-09-12T01:04:42;98356.25;;;13.22;100.00
9474;BME280;8865;47.636;7.692;2022-09-12T01:07:09;98349.16;;;13.23;100.00
9474;BME280;8865;47.636;7.692;2022-09-12T01:09:36;98354.56;;;13.21;100.00
9474;BME280;8865;47.636;7.692;2022-09-12T01:12:04;98348.66;;;13.19;100.00
9474;BME280;8865;47.636;7.692;2022-09-12T01:14:31;98350.03;;;13.14;100.00
9474;BME280;8865;47.636;7.692;2022-09-12T01:17:00;98349.38;;;13.12;100.00
9474;BME280;8865;47.636;7.692;2022-09-12T01:19:54;98341.47;;;13.12;100.00
9474;BME280;8865;47.636;7.692;2022-09-12T01:30:32;98338.22;;;13.00;100.00
9474;BME280;8865;47.636;7.692;2022-09-12T01:38:49;98320.59;;;12.82;100.00
9474;BME280;8865;47.636;7.692;2022-09-12T01:46:50;98320.31;;;12.76;100.00
9474;BME280;8865;47.636;7.692;2022-09-12T01:49:45;98322.13;;;12.75;100.00
9474;BME280;8865;47.636;7.692;2022-09-12T01:55:01;98318.28;;;12.69;100.00
9474;BME280;8865;47.636;7.692;2022-09-12T01:57:41;98327.00;;;12.70;100.00
9474;BME280;8865;47.636;7.692;2022-09-12T02:00:10;98323.81;;;12.66;100.00
9474;BME280;8865;47.636;7.692;2022-09-12T02:02:46;98328.84;;;12.60;100.00
9474;BME280;8865;47.636;7.692;2022-09-12T02:05:27;98320.94;;;12.60;100.00
9474;BME280;8865;47.636;7.692;2022-09-12T02:08:17;98326.34;;;12.58;100.00
9474;BME280;8865;47.636;7.692;2022-09-12T02:10:58;98319.44;;;12.57;100.00
9474;BME280;8865;47.636;7.692;2022-09-12T02:13:31;98324.38;;;12.60;100.00
9474;BME280;8865;47.636;7.692;2022-09-12T02:16:04;98320.25;;;12.58;100.00
9474;BME280;8865;47.636;7.692;2022-09-12T02:18:31;98325.78;;;12.55;100.00
9474;BME280;8865;47.636;7.692;2022-09-12T02:21:00;98326.06;;;12.51;100.00
9474;BME280;8865;47.636;7.692;2022-09-12T02:23:31;98321.53;;;12.54;100.00
9474;BME280;8865;47.636;7.692;2022-09-12T02:26:09;98331.31;;;12.51;100.00
9474;BME280;8865;47.636;7.692;2022-09-12T02:28:40;98320.66;;;12.53;100.00
9474;BME280;8865;47.636;7.692;2022-09-12T02:36:26;98322.09;;;12.47;100.00
9474;BME280;8865;47.636;7.692;2022-09-12T02:38:56;98314.22;;;12.47;100.00
9474;BME280;8865;47.636;7.692;2022-09-12T02:41:22;98325.00;;;12.44;100.00
9474;BME280;8865;47.636;7.692;2022-09-12T02:43:54;98323.34;;;12.43;100.00
9474;BME280;8865;47.636;7.692;2022-09-12T02:46:41;98321.66;;;12.42;100.00
9474;BME280;8865;47.636;7.692;2022-09-12T02:49:09;98318.50;;;12.39;100.00
9474;BME280;8865;47.636;7.692;2022-09-12T02:51:36;98322.09;;;12.38;100.00
9474;BME280;8865;47.636;7.692;2022-09-12T02:54:05;98316.31;;;12.34;100.00
9474;BME280;8865;47.636;7.692;2022-09-12T02:56:32;98312.03;;;12.33;100.00
9474;BME280;8865;47.636;7.692;2022-09-12T02:59:02;98314.78;;;12.31;100.00
9474;BME280;8865;47.636;7.692;2022-09-12T03:04:30;98320.31;;;12.28;100.00
9474;BME280;8865;47.636;7.692;2022-09-12T03:09:47;98312.59;;;12.27;100.00
9474;BME280;8865;47.636;7.692;2022-09-12T03:12:28;98310.09;;;12.25;100.00
9474;BME280;8865;47.636;7.692;2022-09-12T03:20:49;98309.28;;;12.25;100.00
9474;BME280;8865;47.636;7.692;2022-09-12T03:26:26;98302.78;;;12.19;100.00
9474;BME280;8865;47.636;7.692;2022-09-12T03:28:56;98311.09;;;12.14;100.00
9474;BME280;8865;47.636;7.692;2022-09-12T03:31:24;98308.22;;;12.08;100.00
9474;BME280;8865;47.636;7.692;2022-09-12T03:33:50;98301.44;;;12.05;100.00
9474;BME280;8865;47.636;7.692;2022-09-12T03:36:21;98302.13;;;12.17;100.00
9474;BME280;8865;47.636;7.692;2022-09-12T03:38:48;98292.84;;;12.23;100.00
9474;BME280;8865;47.636;7.692;2022-09-12T03:41:14;98300.75;;;12.03;100.00
9474;BME280;8865;47.636;7.692;2022-09-12T03:43:41;98302.69;;;12.01;100.00
9474;BME280;8865;47.636;7.692;2022-09-12T03:46:12;98303.94;;;11.97;100.00
9474;BME280;8865;47.636;7.692;2022-09-12T03:48:39;98300.44;;;12.26;100.00
9474;BME280;8865;47.636;7.692;2022-09-12T03:51:08;98294.63;;;12.22;100.00
9474;BME280;8865;47.636;7.692;2022-09-12T03:53:34;98304.72;;;12.27;100.00
9474;BME280;8865;47.636;7.692;2022-09-12T03:56:08;98302.09;;;12.27;100.00
9474;BME280;8865;47.636;7.692;2022-09-12T03:58:35;98306.66;;;12.25;100.00
9474;BME280;8865;47.636;7.692;2022-09-12T04:01:13;98302.38;;;12.24;100.00
9474;BME280;8865;47.636;7.692;2022-09-12T04:03:50;98294.50;;;12.24;100.00
9474;BME280;8865;47.636;7.692;2022-09-12T04:06:18;98293.66;;;12.23;100.00
9474;BME280;8865;47.636;7.692;2022-09-12T04:08:52;98294.63;;;12.22;100.00
9474;BME280;8865;47.636;7.692;2022-09-12T04:11:20;98296.75;;;11.99;100.00
9474;BME280;8865;47.636;7.692;2022-09-12T04:13:51;98299.09;;;11.92;100.00
9474;BME280;8865;47.636;7.692;2022-09-12T04:16:17;98298.09;;;12.13;100.00
9474;BME280;8865;47.636;7.692;2022-09-12T04:18:44;98300.44;;;12.16;100.00
9474;BME280;8865;47.636;7.692;2022-09-12T04:21:13;98296.31;;;12.13;100.00
9474;BME280;8865;47.636;7.692;2022-09-12T04:23:40;98298.53;;;12.18;100.00
9474;BME280;8865;47.636;7.692;2022-09-12T04:26:09;98295.91;;;12.18;100.00
9474;BME280;8865;47.636;7.692;2022-09-12T04:28:36;98289.81;;;12.18;100.00
9474;BME280;8865;47.636;7.692;2022-09-12T04:31:04;98290.78;;;12.17;100.00
9474;BME280;8865;47.636;7.692;2022-09-12T04:33:33;98292.44;;;12.18;100.00
9474;BME280;8865;47.636;7.692;2022-09-12T04:36:04;98291.31;;;12.20;100.00
9474;BME280;8865;47.636;7.692;2022-09-12T04:38:31;98283.44;;;12.20;100.00
9474;BME280;8865;47.636;7.692;2022-09-12T04:41:08;98283.47;;;12.10;100.00
9474;BME280;8865;47.636;7.692;2022-09-12T04:43:34;98282.38;;;12.03;100.00
9474;BME280;8865;47.636;7.692;2022-09-12T04:46:05;98281.81;;;12.09;100.00
9474;BME280;8865;47.636;7.692;2022-09-12T04:48:40;98271.03;;;12.12;100.00
9474;BME280;8865;47.636;7.692;2022-09-12T04:51:17;98278.75;;;12.14;100.00
9474;BME280;8865;47.636;7.692;2022-09-12T04:53:47;98274.41;;;11.95;100.00
9474;BME280;8865;47.636;7.692;2022-09-12T04:56:17;98281.97;;;11.98;100.00
9474;BME280;8865;47.636;7.692;2022-09-12T04:58:43;98272.41;;;12.07;100.00
9474;BME280;8865;47.636;7.692;2022-09-12T05:01:15;98269.25;;;12.03;100.00
9474;BME280;8865;47.636;7.692;2022-09-12T05:03:46;98271.16;;;12.11;100.00
9474;BME280;8865;47.636;7.692;2022-09-12T05:06:18;98263.00;;;12.14;100.00
9474;BME280;8865;47.636;7.692;2022-09-12T05:08:45;98271.72;;;12.14;100.00
9474;BME280;8865;47.636;7.692;2022-09-12T05:11:16;98275.84;;;12.17;100.00
9474;BME280;8865;47.636;7.692;2022-09-12T05:13:43;98273.09;;;12.19;100.00
9474;BME280;8865;47.636;7.692;2022-09-12T05:16:11;98278.09;;;12.02;100.00
9474;BME280;8865;47.636;7.692;2022-09-12T05:18:37;98288.72;;;11.91;100.00
9474;BME280;8865;47.636;7.692;2022-09-12T05:21:06;98289.81;;;11.88;100.00
9474;BME280;8865;47.636;7.692;2022-09-12T05:23:33;98293.97;;;11.91;100.00
9474;BME280;8865;47.636;7.692;2022-09-12T05:25:59;98296.59;;;11.91;100.00
9474;BME280;8865;47.636;7.692;2022-09-12T05:28:32;98297.31;;;11.93;100.00
9474;BME280;8865;47.636;7.692;2022-09-12T05:33:29;98298.84;;;11.95;100.00
9474;BME280;8865;47.636;7.692;2022-09-12T05:36:01;98299.66;;;11.96;100.00
9474;BME280;8865;47.636;7.692;2022-09-12T05:38:27;98298.69;;;11.97;100.00
9474;BME280;8865;47.636;7.692;2022-09-12T05:41:08;98302.84;;;12.00;100.00
9474;BME280;8865;47.636;7.692;2022-09-12T05:43:36;98305.47;;;12.00;100.00
9474;BME280;8865;47.636;7.692;2022-09-12T05:46:11;98312.06;;;12.04;100.00
9474;BME280;8865;47.636;7.692;2022-09-12T05:48:43;98312.66;;;12.07;100.00
9474;BME280;8865;47.636;7.692;2022-09-12T05:51:12;98312.50;;;12.09;100.00
9474;BME280;8865;47.636;7.692;2022-09-12T05:53:49;98311.50;;;12.10;100.00
9474;BME280;8865;47.636;7.692;2022-09-12T05:56:21;98314.00;;;12.11;100.00
9474;BME280;8865;47.636;7.692;2022-09-12T05:58:54;98313.56;;;12.16;100.00
9474;BME280;8865;47.636;7.692;2022-09-12T06:01:21;98318.97;;;12.24;100.00
9474;BME280;8865;47.636;7.692;2022-09-12T06:03:50;98313.97;;;12.31;100.00
9474;BME280;8865;47.636;7.692;2022-09-12T06:06:18;98319.31;;;12.39;100.00
9474;BME280;8865;47.636;7.692;2022-09-12T06:08:50;98316.97;;;12.46;100.00
9474;BME280;8865;47.636;7.692;2022-09-12T06:11:22;98321.53;;;12.54;100.00
9474;BME280;8865;47.636;7.692;2022-09-12T06:13:49;98322.59;;;12.61;100.00
9474;BME280;8865;47.636;7.692;2022-09-12T06:16:25;98326.00;;;12.71;100.00
9474;BME280;8865;47.636;7.692;2022-09-12T06:19:13;98322.94;;;12.85;100.00
9474;BME280;8865;47.636;7.692;2022-09-12T06:21:45;98325.66;;;12.94;100.00
9474;BME280;8865;47.636;7.692;2022-09-12T06:24:13;98329.06;;;13.04;100.00
9474;BME280;8865;47.636;7.692;2022-09-12T06:26:45;98328.03;;;13.15;100.00
9474;BME280;8865;47.636;7.692;2022-09-12T06:29:12;98326.31;;;13.23;100.00
9474;BME280;8865;47.636;7.692;2022-09-12T06:31:44;98323.53;;;13.35;100.00
9474;BME280;8865;47.636;7.692;2022-09-12T06:34:13;98322.63;;;13.44;100.00
9474;BME280;8865;47.636;7.692;2022-09-12T06:36:41;98318.09;;;13.54;100.00
9474;BME280;8865;47.636;7.692;2022-09-12T06:39:20;98315.44;;;13.64;100.00
9474;BME280;8865;47.636;7.692;2022-09-12T06:41:48;98309.09;;;13.75;100.00
9474;BME280;8865;47.636;7.692;2022-09-12T06:44:17;98306.22;;;13.86;100.00
9474;BME280;8865;47.636;7.692;2022-09-12T06:46:44;98300.91;;;13.96;100.00
9474;BME280;8865;47.636;7.692;2022-09-12T06:49:10;98297.19;;;14.07;100.00
9474;BME280;8865;47.636;7.692;2022-09-12T06:51:36;98295.25;;;14.17;100.00
9474;BME280;8865;47.636;7.692;2022-09-12T06:54:04;98292.25;;;14.30;100.00
9474;BME280;8865;47.636;7.692;2022-09-12T06:56:33;98292.13;;;14.40;100.00
9474;BME280;8865;47.636;7.692;2022-09-12T06:58:59;98282.97;;;14.52;100.00
9474;BME280;8865;47.636;7.692;2022-09-12T07:01:30;98280.53;;;14.59;100.00
9474;BME280;8865;47.636;7.692;2022-09-12T07:03:58;98269.38;;;14.65;100.00
9474;BME280;8865;47.636;7.692;2022-09-12T07:06:27;98263.88;;;14.85;100.00
9474;BME280;8865;47.636;7.692;2022-09-12T07:08:58;98265.53;;;14.94;100.00
9474;BME280;8865;47.636;7.692;2022-09-12T07:11:26;98263.59;;;14.96;100.00
9474;BME280;8865;47.636;7.692;2022-09-12T07:13:54;98269.56;;;15.14;100.00
9474;BME280;8865;47.636;7.692;2022-09-12T07:16:21;98265.81;;;15.25;100.00
9474;BME280;8865;47.636;7.692;2022-09-12T07:18:52;98252.13;;;15.46;100.00
9474;BME280;8865;47.636;7.692;2022-09-12T07:21:19;98260.53;;;15.42;100.00
9474;BME280;8865;47.636;7.692;2022-09-12T07:23:45;98256.09;;;15.50;100.00
9474;BME280;8865;47.636;7.692;2022-09-12T07:26:12;98256.63;;;15.87;100.00
9474;BME280;8865;47.636;7.692;2022-09-12T07:28:39;98255.16;;;15.93;100.00
9474;BME280;8865;47.636;7.692;2022-09-12T07:31:07;98260.75;;;15.98;100.00
9474;BME280;8865;47.636;7.692;2022-09-12T07:33:34;98261.38;;;16.24;100.00
9474;BME280;8865;47.636;7.692;2022-09-12T07:36:03;98249.81;;;16.25;100.00
9474;BME280;8865;47.636;7.692;2022-09-12T07:38:29;98252.25;;;16.35;100.00
9474;BME280;8865;47.636;7.692;2022-09-12T07:40:56;98248.94;;;16.50;100.00
9474;BME280;8865;47.636;7.692;2022-09-12T07:43:22;98245.56;;;16.64;100.00
9474;BME280;8865;47.636;7.692;2022-09-12T07:45:53;98240.72;;;16.76;100.00
9474;BME280;8865;47.636;7.692;2022-09-12T07:48:19;98243.50;;;16.91;100.00
9474;BME280;8865;47.636;7.692;2022-09-12T07:50:45;98252.34;;;17.06;100.00
9474;BME280;8865;47.636;7.692;2022-09-12T07:53:11;98251.31;;;17.16;100.00
9474;BME280;8865;47.636;7.692;2022-09-12T07:55:38;98249.03;;;17.36;100.00
9474;BME280;8865;47.636;7.692;2022-09-12T07:58:04;98240.31;;;17.50;100.00
9474;BME280;8865;47.636;7.692;2022-09-12T08:00:30;98235.44;;;17.62;100.00
9474;BME280;8865;47.636;7.692;2022-09-12T08:03:00;98232.97;;;17.75;100.00
9474;BME280;8865;47.636;7.692;2022-09-12T08:05:27;98229.97;;;17.78;100.00
9474;BME280;8865;47.636;7.692;2022-09-12T08:07:54;98229.06;;;17.86;100.00
9474;BME280;8865;47.636;7.692;2022-09-12T08:10:20;98233.81;;;17.99;100.00
9474;BME280;8865;47.636;7.692;2022-09-12T08:12:46;98229.06;;;18.09;100.00
9474;BME280;8865;47.636;7.692;2022-09-12T08:15:12;98229.44;;;18.21;100.00
9474;BME280;8865;47.636;7.692;2022-09-12T08:17:38;98219.59;;;18.45;100.00
9474;BME280;8865;47.636;7.692;2022-09-12T08:20:04;98219.84;;;18.65;100.00
9474;BME280;8865;47.636;7.692;2022-09-12T08:22:30;98217.44;;;18.85;100.00
9474;BME280;8865;47.636;7.692;2022-09-12T08:24:56;98214.09;;;19.13;100.00
9474;BME280;8865;47.636;7.692;2022-09-12T08:27:23;98219.97;;;19.30;100.00
9474;BME280;8865;47.636;7.692;2022-09-12T08:29:49;98213.75;;;19.44;100.00
9474;BME280;8865;47.636;7.692;2022-09-12T08:32:15;98217.63;;;19.63;100.00
9474;BME280;8865;47.636;7.692;2022-09-12T08:34:41;98219.22;;;19.79;100.00
9474;BME280;8865;47.636;7.692;2022-09-12T08:37:07;98209.88;;;19.90;100.00
9474;BME280;8865;47.636;7.692;2022-09-12T08:39:33;98212.69;;;20.10;100.00
9474;BME280;8865;47.636;7.692;2022-09-12T08:42:04;98219.56;;;20.32;100.00
9474;BME280;8865;47.636;7.692;2022-09-12T08:44:42;98203.69;;;20.46;100.00
9474;BME280;8865;47.636;7.692;2022-09-12T08:47:19;98209.94;;;20.66;100.00
9474;BME280;8865;47.636;7.692;2022-09-12T08:52:22;98205.59;;;21.14;100.00
9474;BME280;8865;47.636;7.692;2022-09-12T08:54:50;98203.34;;;21.17;100.00
9474;BME280;8865;47.636;7.692;2022-09-12T08:57:16;98204.81;;;21.40;100.00
9474;BME280;8865;47.636;7.692;2022-09-12T08:59:45;98206.09;;;21.64;100.00
9474;BME280;8865;47.636;7.692;2022-09-12T09:05:16;98206.25;;;22.36;100.00
9474;BME280;8865;47.636;7.692;2022-09-12T09:10:33;98191.28;;;22.80;100.00
9474;BME280;8865;47.636;7.692;2022-09-12T09:18:19;98187.16;;;24.05;100.00
9474;BME280;8865;47.636;7.692;2022-09-12T09:20:53;98191.63;;;24.49;93.79
9474;BME280;8865;47.636;7.692;2022-09-12T09:23:35;98193.31;;;24.80;91.56
9474;BME280;8865;47.636;7.692;2022-09-12T09:26:05;98182.28;;;25.19;88.62
9474;BME280;8865;47.636;7.692;2022-09-12T09:28:45;98190.00;;;26.05;83.13
9474;BME280;8865;47.636;7.692;2022-09-12T09:31:16;98184.16;;;26.43;72.99
9474;BME280;8865;47.636;7.692;2022-09-12T09:33:43;98178.16;;;27.73;71.50
9474;BME280;8865;47.636;7.692;2022-09-12T09:36:39;98175.47;;;29.83;59.80
9474;BME280;8865;47.636;7.692;2022-09-12T09:45:00;98168.53;;;38.80;31.35
9474;BME280;8865;47.636;7.692;2022-09-12T09:47:27;98164.34;;;39.18;28.94
9474;BME280;8865;47.636;7.692;2022-09-12T09:49:53;98157.13;;;41.98;25.93
9474;BME280;8865;47.636;7.692;2022-09-12T09:52:24;98162.22;;;43.86;23.51
9474;BME280;8865;47.636;7.692;2022-09-12T09:55:00;98155.19;;;42.88;22.20
9474;BME280;8865;47.636;7.692;2022-09-12T10:05:51;98144.41;;;46.45;18.75
9474;BME280;8865;47.636;7.692;2022-09-12T10:08:24;98136.91;;;47.92;17.65
9474;BME280;8865;47.636;7.692;2022-09-12T10:10:56;98125.44;;;48.57;17.58
9474;BME280;8865;47.636;7.692;2022-09-12T10:13:27;98126.97;;;48.43;17.42
9474;BME280;8865;47.636;7.692;2022-09-12T10:15:58;98117.75;;;49.85;15.46
9474;BME280;8865;47.636;7.692;2022-09-12T10:18:39;98114.56;;;48.34;16.30
9474;BME280;8865;47.636;7.692;2022-09-12T10:24:35;98122.13;;;49.36;16.02
9474;BME280;8865;47.636;7.692;2022-09-12T10:27:14;98118.84;;;47.23;16.68
9474;BME280;8865;47.636;7.692;2022-09-12T10:34:53;98112.41;;;45.71;17.88
9474;BME280;8865;47.636;7.692;2022-09-12T10:37:37;98114.63;;;47.37;17.65
9474;BME280;8865;47.636;7.692;2022-09-12T10:40:06;98106.78;;;48.61;16.46
9474;BME280;8865;47.636;7.692;2022-09-12T10:43:00;98110.22;;;49.75;15.87
9474;BME280;8865;47.636;7.692;2022-09-12T10:45:32;98098.53;;;50.55;14.62
9474;BME280;8865;47.636;7.692;2022-09-12T10:48:23;98103.56;;;50.82;14.54
9474;BME280;8865;47.636;7.692;2022-09-12T10:50:50;98108.56;;;51.20;13.48
9474;BME280;8865;47.636;7.692;2022-09-12T10:53:24;98102.25;;;51.12;14.32
9474;BME280;8865;47.636;7.692;2022-09-12T10:56:20;98104.13;;;48.09;15.06
9474;BME280;8865;47.636;7.692;2022-09-12T11:01:34;98084.72;;;48.13;15.38
9474;BME280;8865;47.636;7.692;2022-09-12T11:09:55;98085.09;;;50.21;14.73
9474;BME280;8865;47.636;7.692;2022-09-12T11:17:48;98080.75;;;49.81;13.79
9474;BME280;8865;47.636;7.692;2022-09-12T11:33:50;98063.34;;;50.83;14.10
9474;BME280;8865;47.636;7.692;2022-09-12T11:39:11;98056.81;;;51.08;13.07
9474;BME280;8865;47.636;7.692;2022-09-12T11:41:41;98059.31;;;51.48;12.29
9474;BME280;8865;47.636;7.692;2022-09-12T11:47:00;98053.09;;;51.74;11.61
9474;BME280;8865;47.636;7.692;2022-09-12T11:49:38;98054.16;;;49.65;11.54
9474;BME280;8865;47.636;7.692;2022-09-12T11:57:15;98041.94;;;50.55;10.10
9474;BME280;8865;47.636;7.692;2022-09-12T12:02:29;98043.97;;;47.72;12.62
9474;BME280;8865;47.636;7.692;2022-09-12T12:05:01;98050.00;;;47.33;13.79
9474;BME280;8865;47.636;7.692;2022-09-12T12:07:37;98041.78;;;49.09;14.51
9474;BME280;8865;47.636;7.692;2022-09-12T12:12:50;98030.66;;;49.77;11.60
9474;BME280;8865;47.636;7.692;2022-09-12T12:15:17;98031.78;;;50.09;11.68
9474;BME280;8865;47.636;7.692;2022-09-12T12:17:43;98029.88;;;49.33;11.21
9474;BME280;8865;47.636;7.692;2022-09-12T12:20:15;98027.06;;;48.87;11.74
9474;BME280;8865;47.636;7.692;2022-09-12T12:22:52;98021.47;;;49.95;12.03
9474;BME280;8865;47.636;7.692;2022-09-12T12:27:53;98021.75;;;50.36;11.08
9474;BME280;8865;47.636;7.692;2022-09-12T12:38:02;98002.91;;;50.66;11.89
9474;BME280;8865;47.636;7.692;2022-09-12T12:40:30;98000.41;;;49.94;11.74
9474;BME280;8865;47.636;7.692;2022-09-12T12:43:00;97998.72;;;50.21;10.79
9474;BME280;8865;47.636;7.692;2022-09-12T12:48:00;97988.53;;;49.64;13.05
9474;BME280;8865;47.636;7.692;2022-09-12T12:50:33;97986.16;;;49.38;11.71
9474;BME280;8865;47.636;7.692;2022-09-12T12:53:04;97989.31;;;49.68;12.07
9474;BME280;8865;47.636;7.692;2022-09-12T12:55:35;97977.78;;;49.66;12.58
9474;BME280;8865;47.636;7.692;2022-09-12T12:58:17;97979.69;;;50.02;11.91
9474;BME280;8865;47.636;7.692;2022-09-12T13:03:30;97977.22;;;50.29;13.36
9474;BME280;8865;47.636;7.692;2022-09-12T13:06:02;97969.66;;;50.19;12.47
9474;BME280;8865;47.636;7.692;2022-09-12T13:08:32;97982.19;;;49.21;10.67
9474;BME280;8865;47.636;7.692;2022-09-12T13:11:07;97973.84;;;49.39;11.88
9474;BME280;8865;47.636;7.692;2022-09-12T13:16:03;97966.69;;;49.63;11.26
9474;BME280;8865;47.636;7.692;2022-09-12T13:18:47;97963.50;;;49.64;12.21
9474;BME280;8865;47.636;7.692;2022-09-12T13:21:17;97959.53;;;49.40;12.74
9474;BME280;8865;47.636;7.692;2022-09-12T13:23:45;97967.84;;;49.73;11.48
9474;BME280;8865;47.636;7.692;2022-09-12T13:26:24;97957.31;;;50.24;11.39
9474;BME280;8865;47.636;7.692;2022-09-12T13:29:28;97956.16;;;50.10;11.83
9474;BME280;8865;47.636;7.692;2022-09-12T13:31:59;97947.97;;;49.63;11.78
9474;BME280;8865;47.636;7.692;2022-09-12T13:34:36;97945.63;;;49.58;11.78
9474;BME280;8865;47.636;7.692;2022-09-12T13:42:52;97940.41;;;49.71;11.06
9474;BME280;8865;47.636;7.692;2022-09-12T13:45:32;97945.59;;;49.37;10.43
9474;BME280;8865;47.636;7.692;2022-09-12T13:48:00;97943.25;;;49.28;12.03
9474;BME280;8865;47.636;7.692;2022-09-12T13:50:36;97936.88;;;49.34;10.70
9474;BME280;8865;47.636;7.692;2022-09-12T13:53:07;97930.13;;;49.36;11.96
9474;BME280;8865;47.636;7.692;2022-09-12T13:55:40;97930.13;;;48.96;12.55
9474;BME280;8865;47.636;7.692;2022-09-12T13:58:19;97932.09;;;49.53;9.92
9474;BME280;8865;47.636;7.692;2022-09-12T14:00:45;97924.97;;;48.98;10.08
9474;BME280;8865;47.636;7.692;2022-09-12T14:03:29;97930.13;;;48.85;10.20
9474;BME280;8865;47.636;7.692;2022-09-12T14:06:14;97926.22;;;47.17;10.86
9474;BME280;8865;47.636;7.692;2022-09-12T14:08:45;97916.75;;;47.26;10.82
9474;BME280;8865;47.636;7.692;2022-09-12T14:11:31;97909.31;;;47.37;11.52
9474;BME280;8865;47.636;7.692;2022-09-12T14:14:01;97909.66;;;47.28;13.05
9474;BME280;8865;47.636;7.692;2022-09-12T14:16:36;97910.53;;;47.36;12.35
9474;BME280;8865;47.636;7.692;2022-09-12T14:19:03;97911.84;;;46.56;12.71
9474;BME280;8865;47.636;7.692;2022-09-12T14:21:36;97915.28;;;46.15;12.21
9474;BME280;8865;47.636;7.692;2022-09-12T14:24:05;97913.84;;;45.91;12.19
9474;BME280;8865;47.636;7.692;2022-09-12T14:26:35;97912.22;;;45.60;13.46
9474;BME280;8865;47.636;7.692;2022-09-12T14:29:05;97906.09;;;44.97;13.45
9474;BME280;8865;47.636;7.692;2022-09-12T14:31:36;97900.56;;;43.73;13.20
9474;BME280;8865;47.636;7.692;2022-09-12T14:39:22;97896.97;;;39.25;18.40
9474;BME280;8865;47.636;7.692;2022-09-12T14:42:05;97898.53;;;37.70;22.62
9474;BME280;8865;47.636;7.692;2022-09-12T14:44:36;97899.50;;;36.54;23.75
9474;BME280;8865;47.636;7.692;2022-09-12T14:47:19;97899.00;;;35.56;24.56
9474;BME280;8865;47.636;7.692;2022-09-12T14:49:47;97890.34;;;34.85;22.73
9474;BME280;8865;47.636;7.692;2022-09-12T14:52:33;97894.84;;;34.24;24.79
9474;BME280;8865;47.636;7.692;2022-09-12T14:55:19;97894.25;;;33.70;24.97
9474;BME280;8865;47.636;7.692;2022-09-12T14:58:07;97897.03;;;33.21;25.02
9474;BME280;8865;47.636;7.692;2022-09-12T15:00:36;97898.72;;;32.88;27.19
9474;BME280;8865;47.636;7.692;2022-09-12T15:03:23;97884.28;;;32.34;25.91
9474;BME280;8865;47.636;7.692;2022-09-12T15:05:50;97883.63;;;32.13;27.88
9474;BME280;8865;47.636;7.692;2022-09-12T15:08:16;97889.88;;;31.68;26.24
9474;BME280;8865;47.636;7.692;2022-09-12T15:10:42;97884.00;;;31.46;28.25
9474;BME280;8865;47.636;7.692;2022-09-12T15:15:39;97881.97;;;30.96;30.41
9474;BME280;8865;47.636;7.692;2022-09-12T15:18:05;97884.97;;;30.74;31.94
9474;BME280;8865;47.636;7.692;2022-09-12T15:20:33;97888.53;;;30.49;31.11
9474;BME280;8865;47.636;7.692;2022-09-12T15:23:00;97887.44;;;30.24;30.52
9474;BME280;8865;47.636;7.692;2022-09-12T15:25:26;97890.63;;;30.01;28.71
9474;BME280;8865;47.636;7.692;2022-09-12T15:27:52;97883.56;;;29.79;28.52
9474;BME280;8865;47.636;7.692;2022-09-12T15:30:18;97892.16;;;29.61;29.22
9474;BME280;8865;47.636;7.692;2022-09-12T15:32:44;97903.44;;;29.47;31.44
9474;BME280;8865;47.636;7.692;2022-09-12T15:35:31;97897.53;;;29.50;32.36
9474;BME280;8865;47.636;7.692;2022-09-12T15:37:58;97899.34;;;29.34;34.47
9474;BME280;8865;47.636;7.692;2022-09-12T15:40:24;97894.97;;;29.23;31.34
9474;BME280;8865;47.636;7.692;2022-09-12T15:42:51;97893.66;;;28.83;35.17
9474;BME280;8865;47.636;7.692;2022-09-12T15:45:20;97901.75;;;28.83;32.36
9474;BME280;8865;47.636;7.692;2022-09-12T15:48:02;97895.50;;;28.77;36.05
9474;BME280;8865;47.636;7.692;2022-09-12T15:50:46;97900.00;;;28.66;32.55
9474;BME280;8865;47.636;7.692;2022-09-12T15:53:33;97892.19;;;28.65;35.10
9474;BME280;8865;47.636;7.692;2022-09-12T15:55:59;97893.75;;;28.61;35.26
9474;BME280;8865;47.636;7.692;2022-09-12T15:58:25;97890.47;;;28.54;33.46
9474;BME280;8865;47.636;7.692;2022-09-12T16:00:50;97892.81;;;28.45;33.75
9474;BME280;8865;47.636;7.692;2022-09-12T16:03:22;97884.38;;;28.36;36.31
9474;BME280;8865;47.636;7.692;2022-09-12T16:05:49;97884.88;;;28.28;32.66
9474;BME280;8865;47.636;7.692;2022-09-12T16:08:19;97884.81;;;28.23;37.04
9474;BME280;8865;47.636;7.692;2022-09-12T16:10:46;97874.41;;;28.04;35.67
9474;BME280;8865;47.636;7.692;2022-09-12T16:13:15;97873.22;;;27.95;36.30
9474;BME280;8865;47.636;7.692;2022-09-12T16:15:41;97872.94;;;27.91;39.24
9474;BME280;8865;47.636;7.692;2022-09-12T16:18:07;97866.59;;;27.75;41.71